Glendale, MA (01229)

3:51 PM EDT on April 21, 2015 (GMT -0400)
Devon Rd, Lee | | Change Station
CLOSE
Current Station
Personal Weather Station
Location: Lee, MA
Elevation: 1083 ft
Nearby Weather Stations

Elev 1083 ft 42.30 °N, 73.28 °W | Updated 3 seconds ago

Partly Cloudy
Partly Cloudy
56.1 °F
Feels Like 56.1 °F
N
4.5
Wind Variable Wind from NNW
Gusts 7.4 mph

Today
High -- | Low -- °F
--% Chance of Precip.
Yesterday
High -- | Low -- °F
Precip. -- in
6:03 AM 7:41 PM
Waxing Crescent, 12% visible
Pressure 29.58 in
Visibility 10.0 miles
Clouds Scattered Clouds 4400 ft
Dew Point 36 °F
Humidity 46%
Rainfall 0.50 in
Snow Depth Not available.
UV 3.0 out of 12
Pollen 3.50 out of 12
Air Quality Not available.
Flu Activity Widespread
METAR KPSF 211854Z AUTO 25013G19KT 10SM SCT044 13/02 A2961 RMK AO2 SLP017 T01330022

More Conditions Fewer Conditions

Pressure 29.58 in
Visibility 10.0 miles
Clouds Scattered Clouds 4400 ft
Dew Point 36 °F
Humidity 46%
Rainfall 0.50 in
Snow Depth Not available.
UV 3.0 out of 12
Pollen 3.50 out of 12
Air Quality Not available.
Flu Activity Widespread
METAR KPSF 211854Z AUTO 25013G19KT 10SM SCT044 13/02 A2961 RMK AO2 SLP017 T01330022

More Conditions Fewer Conditions

10-Day Weather Forecast

Almanac

Astronomy

Apr. 21, 2015 Rise Set
Actual Time
Civil Twilight
Nautical Twilight
Astronomical Twilight
Moon
Length of Visible Light
Length of Day
Tomorrow will be .
, % of the Moon is Illuminated

Today's Extremes

State Highs State Lows

Community

WunderPhotos

Upload Photos

1,815,523 photos uploaded!

WunderBlogs® & News

Nearby

Air Quality

  Air Quality AQ Index Pollutant
Not available.

Snow Depth

Station Depth Elevation

Earthquake Activity

City Distance Mag. Time & Date
Minimum magnitude displayed is 2.5.

Coastal Water Temperatures

Place Temperature

Stations

Nearby Weather Stations

Station Location Temp. Windchill Dew Point Humidity Wind Precip. Elev Updated Type